Time;durP1;ratioP1;P1;durP2;ratioP2;P2;SDS_P1;SDS_P2;PMS_P1;PMS_P2;Temp;Humidity;BMP_temperature;BMP_pressure;BME280_temperature;BME280_humidity;BME280_pressure;Samples;Min_cycle;Max_cycle;Signal;HPM_P1;HPM_P2
2020/12/28 00:01:34;;;;;;;12.63;4.17;;;;;;;;;;5076043;28;20059;-56
2020/12/28 00:04:01;;;;;;;5.93;3.53;;;;;;;;;;5076040;28;20016;-56
2020/12/28 00:06:28;;;;;;;15.57;3.40;;;;;;;;;;5075979;28;20032;-56
2020/12/28 00:08:55;;;;;;;10.57;4.47;;;;;;;;;;5075822;28;20032;-56
2020/12/28 00:11:21;;;;;;;6.17;3.33;;;;;;;;;;5075899;28;20023;-56
2020/12/28 00:13:48;;;;;;;10.43;3.67;;;;;;;;;;5075911;28;20029;-56
2020/12/28 00:16:15;;;;;;;5.20;3.63;;;;;;;;;;5075461;28;20074;-56
2020/12/28 00:18:42;;;;;;;10.00;3.17;;;;;;;;;;5075478;28;20025;-56
2020/12/28 00:21:09;;;;;;;6.23;3.47;;;;;;;;;;5076109;28;20494;-56
2020/12/28 00:23:36;;;;;;;5.63;3.43;;;;;;;;;;5075657;28;20104;-55
2020/12/28 00:26:03;;;;;;;9.37;3.70;;;;;;;;;;5075483;28;20115;-56
2020/12/28 00:28:30;;;;;;;8.73;3.83;;;;;;;;;;5075335;28;20046;-55
2020/12/28 00:30:57;;;;;;;6.67;3.33;;;;;;;;;;5075438;28;20017;-56
2020/12/28 00:33:23;;;;;;;5.63;3.50;;;;;;;;;;5075656;28;20029;-56
2020/12/28 00:35:50;;;;;;;9.33;3.13;;;;;;;;;;5075366;28;20055;-56
2020/12/28 00:38:17;;;;;;;7.03;3.40;;;;;;;;;;5075338;28;20032;-56
2020/12/28 00:40:43;;;;;;;12.00;3.30;;;;;;;;;;5075348;28;20036;-56
2020/12/28 00:43:10;;;;;;;5.83;3.13;;;;;;;;;;5075369;28;20064;-55
2020/12/28 00:45:37;;;;;;;9.03;4.10;;;;;;;;;;5075168;28;20078;-55
2020/12/28 00:48:03;;;;;;;7.33;3.40;;;;;;;;;;5075355;28;20111;-55
2020/12/28 00:50:30;;;;;;;10.77;4.27;;;;;;;;;;5075266;28;20032;-55
2020/12/28 00:52:57;;;;;;;11.20;4.37;;;;;;;;;;5075184;28;20028;-55
2020/12/28 00:55:23;;;;;;;10.23;3.80;;;;;;;;;;5074910;28;20070;-56
2020/12/28 00:57:50;;;;;;;12.37;3.60;;;;;;;;;;5074664;28;20115;-55
2020/12/28 01:00:17;;;;;;;10.47;4.03;;;;;;;;;;5075084;28;20031;-56
2020/12/28 01:02:43;;;;;;;9.87;4.53;;;;;;;;;;5074916;28;20429;-55
2020/12/28 01:05:10;;;;;;;9.30;3.77;;;;;;;;;;5075036;28;20025;-55
2020/12/28 01:07:37;;;;;;;9.60;3.70;;;;;;;;;;5074808;28;20031;-55
2020/12/28 01:10:03;;;;;;;6.93;3.50;;;;;;;;;;5075106;28;20037;-55
2020/12/28 01:12:33;;;;;;;11.10;4.10;;;;;;;;;;5074932;28;20033;-55
2020/12/28 01:15:00;;;;;;;10.33;4.33;;;;;;;;;;5074607;28;20028;-55
2020/12/28 01:17:26;;;;;;;10.73;3.83;;;;;;;;;;5074732;28;20368;-55
2020/12/28 01:19:53;;;;;;;9.57;3.60;;;;;;;;;;5075722;27;20025;-56
2020/12/28 01:22:20;;;;;;;11.63;3.90;;;;;;;;;;5074596;28;20025;-55
2020/12/28 01:24:46;;;;;;;11.10;3.40;;;;;;;;;;5074373;28;20103;-55
2020/12/28 01:27:13;;;;;;;6.93;2.93;;;;;;;;;;5074142;28;20021;-55
2020/12/28 01:29:40;;;;;;;7.57;4.07;;;;;;;;;;5074456;28;20029;-55
2020/12/28 01:32:06;;;;;;;8.23;4.73;;;;;;;;;;5074286;28;20479;-55
2020/12/28 01:34:33;;;;;;;10.37;4.47;;;;;;;;;;5074315;28;20028;-55
2020/12/28 01:37:00;;;;;;;12.03;4.90;;;;;;;;;;5074429;28;20020;-55
2020/12/28 01:39:26;;;;;;;6.93;4.30;;;;;;;;;;5074044;28;20104;-55
2020/12/28 01:41:53;;;;;;;5.73;3.63;;;;;;;;;;5074008;28;20031;-55
2020/12/28 01:44:20;;;;;;;8.37;3.60;;;;;;;;;;5074067;28;20525;-55
2020/12/28 01:46:46;;;;;;;9.03;5.27;;;;;;;;;;5073896;28;20052;-55
2020/12/28 01:49:13;;;;;;;10.23;5.27;;;;;;;;;;5073737;28;20036;-55
2020/12/28 01:51:41;;;;;;;9.40;4.23;;;;;;;;;;5073840;28;20494;-55
2020/12/28 01:54:07;;;;;;;9.43;4.53;;;;;;;;;;5073811;28;20033;-54
2020/12/28 01:56:34;;;;;;;7.90;4.00;;;;;;;;;;5055754;28;20581;-55
2020/12/28 01:59:01;;;;;;;11.27;5.00;;;;;;;;;;5073688;28;20375;-55
2020/12/28 02:01:34;;;;;;;11.23;4.80;;;;;;;;;;5074192;28;20032;-55
2020/12/28 02:04:01;;;;;;;13.93;5.70;;;;;;;;;;5073580;28;20590;-55
2020/12/28 02:06:28;;;;;;;11.13;6.00;;;;;;;;;;5073675;28;20035;-55
2020/12/28 02:08:54;;;;;;;11.23;5.60;;;;;;;;;;5072754;28;20039;-54
2020/12/28 02:11:21;;;;;;;11.53;5.57;;;;;;;;;;5073454;28;20459;-55
2020/12/28 02:13:48;;;;;;;12.83;5.17;;;;;;;;;;5073592;28;20025;-55
2020/12/28 02:16:14;;;;;;;13.40;6.03;;;;;;;;;;5073248;28;20035;-55
2020/12/28 02:18:41;;;;;;;13.70;5.37;;;;;;;;;;5073317;28;20127;-54
2020/12/28 02:21:08;;;;;;;15.93;5.87;;;;;;;;;;5074534;28;20119;-55
2020/12/28 02:23:35;;;;;;;16.57;6.10;;;;;;;;;;5073450;28;20483;-54
2020/12/28 02:26:01;;;;;;;16.17;6.03;;;;;;;;;;5073394;28;20048;-54
2020/12/28 02:28:28;;;;;;;15.90;6.93;;;;;;;;;;5073127;28;20040;-54
2020/12/28 02:30:55;;;;;;;14.23;6.07;;;;;;;;;;5073259;28;20035;-55
2020/12/28 02:33:21;;;;;;;11.23;5.33;;;;;;;;;;5073179;28;20032;-54
2020/12/28 02:35:48;;;;;;;14.77;6.87;;;;;;;;;;5073079;28;20418;-55
2020/12/28 02:38:15;;;;;;;15.83;5.57;;;;;;;;;;5073092;28;20045;-54
2020/12/28 02:40:41;;;;;;;11.80;5.70;;;;;;;;;;5073151;28;20031;-54
2020/12/28 02:43:08;;;;;;;14.67;6.20;;;;;;;;;;5073131;28;20055;-54
2020/12/28 02:45:35;;;;;;;20.70;6.90;;;;;;;;;;5072899;28;20451;-54
2020/12/28 02:48:01;;;;;;;13.17;5.87;;;;;;;;;;5072854;28;20033;-54
2020/12/28 02:50:28;;;;;;;13.07;5.13;;;;;;;;;;5072991;28;20021;-54
2020/12/28 02:52:55;;;;;;;14.17;6.80;;;;;;;;;;5073004;28;20475;-54
2020/12/28 02:55:21;;;;;;;15.10;7.67;;;;;;;;;;5072855;28;20048;-55
2020/12/28 02:57:48;;;;;;;14.90;7.10;;;;;;;;;;5072616;28;20027;-54
2020/12/28 03:00:15;;;;;;;13.97;6.63;;;;;;;;;;5072859;28;20028;-54
2020/12/28 03:02:42;;;;;;;16.47;6.33;;;;;;;;;;5072367;28;20063;-54
2020/12/28 03:05:09;;;;;;;12.27;6.30;;;;;;;;;;5072830;28;20082;-55
2020/12/28 03:07:35;;;;;;;15.50;6.30;;;;;;;;;;5072722;28;20038;-54
2020/12/28 03:10:03;;;;;;;12.10;5.60;;;;;;;;;;5072491;28;20497;-54
2020/12/28 03:12:30;;;;;;;13.87;5.47;;;;;;;;;;5072781;28;20024;-54
2020/12/28 03:14:56;;;;;;;9.33;4.87;;;;;;;;;;5072633;28;20028;-54
2020/12/28 03:17:23;;;;;;;10.07;5.37;;;;;;;;;;5072723;28;20028;-54
2020/12/28 03:19:56;;;;;;;13.17;5.63;;;;;;;;;;5072346;28;20039;-54
2020/12/28 03:22:23;;;;;;;9.70;4.80;;;;;;;;;;5073067;28;20082;-54
2020/12/28 03:24:50;;;;;;;11.77;4.67;;;;;;;;;;5072629;28;20024;-54
2020/12/28 03:27:16;;;;;;;11.10;4.80;;;;;;;;;;5072478;28;20035;-54
2020/12/28 03:29:43;;;;;;;17.40;5.67;;;;;;;;;;5072437;28;20402;-54
2020/12/28 03:32:10;;;;;;;12.13;5.97;;;;;;;;;;5072495;28;20056;-54
2020/12/28 03:34:36;;;;;;;10.80;5.10;;;;;;;;;;5072405;28;20058;-54
2020/12/28 03:37:03;;;;;;;14.80;5.03;;;;;;;;;;5072411;28;20471;-54
2020/12/28 03:39:30;;;;;;;11.37;6.13;;;;;;;;;;5072283;28;20029;-54
2020/12/28 03:41:56;;;;;;;11.70;5.47;;;;;;;;;;5072430;28;20071;-54
2020/12/28 03:44:23;;;;;;;10.40;4.60;;;;;;;;;;5072313;28;20029;-54
2020/12/28 03:46:50;;;;;;;9.53;5.23;;;;;;;;;;5072497;28;20118;-54
2020/12/28 03:49:17;;;;;;;8.67;4.80;;;;;;;;;;5072367;28;20040;-54
2020/12/28 03:51:44;;;;;;;12.10;6.00;;;;;;;;;;5072367;28;20036;-54
2020/12/28 03:54:10;;;;;;;12.53;4.70;;;;;;;;;;5072245;28;20479;-55
2020/12/28 03:56:37;;;;;;;7.80;4.43;;;;;;;;;;5072467;28;20111;-55
2020/12/28 03:59:04;;;;;;;15.00;6.00;;;;;;;;;;5072310;28;20463;-54
2020/12/28 04:01:30;;;;;;;7.90;4.63;;;;;;;;;;5072275;28;20046;-54
2020/12/28 04:03:57;;;;;;;9.87;4.60;;;;;;;;;;5072364;28;20107;-54
2020/12/28 04:06:24;;;;;;;7.73;4.37;;;;;;;;;;5072234;28;20025;-54
2020/12/28 04:08:50;;;;;;;12.20;5.37;;;;;;;;;;5072110;28;20051;-54
2020/12/28 04:11:17;;;;;;;9.03;4.17;;;;;;;;;;5072170;28;20047;-54
2020/12/28 04:13:44;;;;;;;13.03;4.37;;;;;;;;;;5072041;28;20048;-54
2020/12/28 04:16:11;;;;;;;9.27;4.33;;;;;;;;;;5072053;28;20020;-54
2020/12/28 04:18:37;;;;;;;12.20;4.67;;;;;;;;;;5072251;28;20046;-54
2020/12/28 04:21:04;;;;;;;9.20;4.53;;;;;;;;;;5073108;28;20044;-54
2020/12/28 04:23:31;;;;;;;7.73;4.10;;;;;;;;;;5072147;28;20477;-54
2020/12/28 04:25:57;;;;;;;10.37;4.27;;;;;;;;;;5071848;28;20375;-54
2020/12/28 04:28:24;;;;;;;8.77;3.77;;;;;;;;;;5071991;28;20036;-54
2020/12/28 04:30:51;;;;;;;6.90;3.83;;;;;;;;;;5072215;28;20054;-54
2020/12/28 04:33:17;;;;;;;6.57;3.60;;;;;;;;;;5075389;28;20498;-54
2020/12/28 04:35:44;;;;;;;11.63;4.43;;;;;;;;;;5075377;28;20047;-54
2020/12/28 04:38:11;;;;;;;8.70;4.10;;;;;;;;;;5075382;28;20112;-54
2020/12/28 04:40:38;;;;;;;11.63;4.10;;;;;;;;;;5075561;28;20016;-54
2020/12/28 04:43:09;;;;;;;10.67;4.07;;;;;;;;;;5075319;28;20111;-54
2020/12/28 04:45:36;;;;;;;6.53;4.07;;;;;;;;;;5075170;28;20047;-54
2020/12/28 04:48:06;;;;;;;7.63;3.63;;;;;;;;;;5075226;28;20072;-54
2020/12/28 04:50:32;;;;;;;8.73;3.33;;;;;;;;;;5075252;28;20100;-54
2020/12/28 04:52:59;;;;;;;9.43;3.60;;;;;;;;;;5075190;28;20079;-55
2020/12/28 04:55:26;;;;;;;8.03;3.87;;;;;;;;;;5075008;28;20111;-54
2020/12/28 04:57:52;;;;;;;8.93;3.73;;;;;;;;;;5074814;28;20028;-55
2020/12/28 05:00:19;;;;;;;10.27;3.80;;;;;;;;;;5074828;28;20505;-54
2020/12/28 05:02:47;;;;;;;9.03;3.53;;;;;;;;;;5074830;28;20414;-54
2020/12/28 05:05:14;;;;;;;8.80;4.40;;;;;;;;;;5074909;28;20052;-54
2020/12/28 05:07:43;;;;;;;13.13;4.23;;;;;;;;;;5074764;28;20028;-54
2020/12/28 05:10:20;;;;;;;6.87;4.23;;;;;;;;;;5074807;28;20025;-54
2020/12/28 05:12:47;;;;;;;7.03;4.07;;;;;;;;;;5074818;28;20029;-54
2020/12/28 05:15:14;;;;;;;5.73;3.27;;;;;;;;;;5074796;28;20070;-54
2020/12/28 05:17:41;;;;;;;11.90;4.37;;;;;;;;;;5074770;28;20047;-54
2020/12/28 05:20:07;;;;;;;7.50;4.07;;;;;;;;;;5074783;28;20066;-53
2020/12/28 05:22:35;;;;;;;24.93;5.67;;;;;;;;;;5075328;28;20052;-54
2020/12/28 05:25:01;;;;;;;8.10;4.27;;;;;;;;;;5074508;28;20483;-54
2020/12/28 05:27:28;;;;;;;11.57;3.97;;;;;;;;;;5074536;28;20024;-54
2020/12/28 05:29:55;;;;;;;7.13;3.33;;;;;;;;;;5074452;28;20032;-54
2020/12/28 05:32:23;;;;;;;9.10;3.73;;;;;;;;;;5074508;28;20487;-54
2020/12/28 05:34:50;;;;;;;8.93;4.00;;;;;;;;;;5074205;28;20028;-54
2020/12/28 05:37:17;;;;;;;7.47;4.30;;;;;;;;;;5074225;28;20035;-54
2020/12/28 05:39:44;;;;;;;8.77;4.23;;;;;;;;;;5074282;28;20028;-54
2020/12/28 05:42:12;;;;;;;12.37;4.23;;;;;;;;;;5074258;28;20058;-54
2020/12/28 05:44:47;;;;;;;9.40;4.87;;;;;;;;;;5074104;28;20024;-53
2020/12/28 05:47:15;;;;;;;8.57;4.13;;;;;;;;;;5073957;28;20031;-54
2020/12/28 05:49:42;;;;;;;8.53;3.50;;;;;;;;;;5074089;28;20522;-54
2020/12/28 05:52:10;;;;;;;10.80;4.00;;;;;;;;;;5074016;28;20241;-54
2020/12/28 05:54:37;;;;;;;6.67;3.90;;;;;;;;;;5073811;28;20028;-54
2020/12/28 05:57:04;;;;;;;6.07;3.67;;;;;;;;;;5073892;28;20075;-54
2020/12/28 05:59:32;;;;;;;7.70;4.30;;;;;;;;;;5073736;28;20264;-54
2020/12/28 06:02:00;;;;;;;8.67;3.90;;;;;;;;;;5073776;28;20048;-54
2020/12/28 06:04:27;;;;;;;7.50;3.67;;;;;;;;;;5073622;28;20774;-54
2020/12/28 06:06:57;;;;;;;15.83;4.60;;;;;;;;;;5074110;28;20039;-54
2020/12/28 06:09:24;;;;;;;6.17;3.00;;;;;;;;;;5073542;28;20032;-54
2020/12/28 06:11:51;;;;;;;12.33;3.97;;;;;;;;;;5073702;28;20259;-54
2020/12/28 06:14:18;;;;;;;6.43;3.40;;;;;;;;;;5073589;28;20732;-54
2020/12/28 06:16:46;;;;;;;7.10;3.50;;;;;;;;;;5073554;28;20254;-54
2020/12/28 06:19:22;;;;;;;7.03;3.50;;;;;;;;;;5073431;28;20249;-54
2020/12/28 06:21:49;;;;;;;7.10;3.23;;;;;;;;;;5074381;28;20292;-54
2020/12/28 06:24:30;;;;;;;8.43;3.60;;;;;;;;;;5073136;28;20288;-54
2020/12/28 06:27:10;;;;;;;5.17;3.13;;;;;;;;;;5073398;28;20257;-54
2020/12/28 06:29:38;;;;;;;6.80;2.87;;;;;;;;;;5073263;28;20674;-54
2020/12/28 06:32:12;;;;;;;6.97;3.30;;;;;;;;;;5073258;28;20265;-54
2020/12/28 06:34:39;;;;;;;9.67;4.13;;;;;;;;;;5073205;28;20770;-54
2020/12/28 06:37:06;;;;;;;8.90;3.77;;;;;;;;;;5073192;28;20249;-54
2020/12/28 06:39:33;;;;;;;6.47;3.53;;;;;;;;;;5073068;28;20292;-54
2020/12/28 06:42:09;;;;;;;9.97;4.50;;;;;;;;;;5073047;28;20337;-54
2020/12/28 06:44:36;;;;;;;9.57;4.40;;;;;;;;;;5073005;28;20639;-54
2020/12/28 06:47:03;;;;;;;7.00;4.13;;;;;;;;;;5073186;28;20296;-54
2020/12/28 06:49:40;;;;;;;9.07;4.77;;;;;;;;;;5073034;28;20289;-54
2020/12/28 06:52:07;;;;;;;10.37;5.20;;;;;;;;;;5073051;28;20915;-54
2020/12/28 06:54:33;;;;;;;9.70;5.00;;;;;;;;;;5072370;28;20257;-54
2020/12/28 06:57:07;;;;;;;7.07;3.67;;;;;;;;;;5072980;28;20277;-54
2020/12/28 06:59:34;;;;;;;7.27;4.07;;;;;;;;;;5072831;28;20718;-54
2020/12/28 07:02:01;;;;;;;8.33;4.80;;;;;;;;;;5072949;28;20265;-54
2020/12/28 07:04:32;;;;;;;13.20;4.70;;;;;;;;;;5072745;28;20735;-54
2020/12/28 07:06:59;;;;;;;7.33;3.97;;;;;;;;;;5072859;28;20535;-54
2020/12/28 07:09:26;;;;;;;7.03;3.83;;;;;;;;;;5072718;28;20281;-54
2020/12/28 07:11:59;;;;;;;11.97;4.60;;;;;;;;;;5072686;28;20258;-54
2020/12/28 07:14:26;;;;;;;8.40;4.40;;;;;;;;;;5072697;28;20265;-54
2020/12/28 07:16:53;;;;;;;7.83;4.40;;;;;;;;;;5072642;28;20745;-54
2020/12/28 07:19:20;;;;;;;7.83;4.20;;;;;;;;;;5072682;28;20727;-54
2020/12/28 07:21:47;;;;;;;7.97;3.87;;;;;;;;;;5073475;28;20281;-54
2020/12/28 07:24:14;;;;;;;6.47;3.67;;;;;;;;;;5072556;28;20344;-54
2020/12/28 07:26:42;;;;;;;7.97;4.37;;;;;;;;;;5072540;28;20249;-54
2020/12/28 07:29:13;;;;;;;9.87;4.27;;;;;;;;;;5072378;28;20771;-54
2020/12/28 07:31:40;;;;;;;7.03;4.20;;;;;;;;;;5072687;28;20247;-55
2020/12/28 07:34:07;;;;;;;9.87;3.77;;;;;;;;;;5054517;28;20759;-55
2020/12/28 07:36:35;;;;;;;9.57;3.77;;;;;;;;;;5072356;28;20602;-55
2020/12/28 07:39:02;;;;;;;7.77;3.40;;;;;;;;;;5072292;28;20319;-54
2020/12/28 07:41:29;;;;;;;6.33;3.70;;;;;;;;;;5072509;28;20257;-54
2020/12/28 07:43:56;;;;;;;6.17;3.57;;;;;;;;;;5072450;28;20788;-54
2020/12/28 07:46:33;;;;;;;8.07;4.87;;;;;;;;;;5072411;28;20743;-54
2020/12/28 07:49:20;;;;;;;9.43;3.90;;;;;;;;;;5072476;28;20824;-53
2020/12/28 07:51:51;;;;;;;10.23;4.20;;;;;;;;;;5059511;28;20306;-53
2020/12/28 07:54:22;;;;;;;11.43;4.80;;;;;;;;;;5072198;28;20283;-54
2020/12/28 07:56:53;;;;;;;9.50;5.43;;;;;;;;;;5072357;28;20257;-54
2020/12/28 07:59:29;;;;;;;8.63;4.13;;;;;;;;;;5072393;28;20747;-54
2020/12/28 08:01:58;;;;;;;12.37;4.10;;;;;;;;;;5072293;28;20242;-53
2020/12/28 08:04:25;;;;;;;7.47;3.83;;;;;;;;;;5072012;28;20245;-53
2020/12/28 08:06:52;;;;;;;7.93;4.00;;;;;;;;;;5073925;28;20255;-54
2020/12/28 08:09:22;;;;;;;7.13;4.07;;;;;;;;;;5075840;28;20317;-54
2020/12/28 08:12:01;;;;;;;7.43;4.20;;;;;;;;;;5075936;28;20260;-54
2020/12/28 08:14:28;;;;;;;9.83;4.30;;;;;;;;;;5076177;28;20304;-54
2020/12/28 08:16:55;;;;;;;5.43;3.47;;;;;;;;;;5075722;28;20245;-53
2020/12/28 08:19:26;;;;;;;6.97;4.30;;;;;;;;;;5075783;28;20250;-54
2020/12/28 08:21:53;;;;;;;11.57;5.33;;;;;;;;;;5076983;27;20292;-54
2020/12/28 08:24:20;;;;;;;8.60;4.77;;;;;;;;;;5075627;28;20269;-54
2020/12/28 08:26:47;;;;;;;6.50;4.00;;;;;;;;;;5075820;28;20253;-54
2020/12/28 08:29:14;;;;;;;8.07;4.27;;;;;;;;;;5075617;28;20605;-54
2020/12/28 08:31:42;;;;;;;5.40;3.37;;;;;;;;;;5075567;28;20332;-54
2020/12/28 08:34:12;;;;;;;6.03;3.50;;;;;;;;;;5075727;28;20341;-54
2020/12/28 08:36:41;;;;;;;10.03;3.87;;;;;;;;;;5075463;28;20252;-54
2020/12/28 08:39:14;;;;;;;7.60;4.43;;;;;;;;;;5075580;28;20311;-54
2020/12/28 08:41:51;;;;;;;7.73;3.83;;;;;;;;;;5075574;28;20264;-54
2020/12/28 08:44:27;;;;;;;7.03;3.67;;;;;;;;;;5075235;28;20331;-53
2020/12/28 08:46:53;;;;;;;5.83;3.40;;;;;;;;;;5075227;28;20426;-53
2020/12/28 08:49:27;;;;;;;8.17;4.10;;;;;;;;;;5075064;28;20289;-53
2020/12/28 08:51:54;;;;;;;9.13;4.47;;;;;;;;;;5075309;28;20281;-53
2020/12/28 08:54:30;;;;;;;9.83;3.53;;;;;;;;;;5075145;28;20241;-54
2020/12/28 08:56:56;;;;;;;8.93;4.50;;;;;;;;;;5075146;28;20320;-53
2020/12/28 08:59:23;;;;;;;7.77;3.33;;;;;;;;;;5075045;28;20676;-53
2020/12/28 09:01:53;;;;;;;6.03;2.87;;;;;;;;;;5075030;28;20264;-54
2020/12/28 09:04:21;;;;;;;5.97;3.00;;;;;;;;;;5074885;28;20253;-53
2020/12/28 09:06:48;;;;;;;6.73;3.27;;;;;;;;;;5075031;28;20249;-53
2020/12/28 09:09:15;;;;;;;9.50;4.50;;;;;;;;;;5074917;28;20289;-53
2020/12/28 09:11:42;;;;;;;5.83;3.07;;;;;;;;;;5074763;28;20420;-53
2020/12/28 09:14:09;;;;;;;5.23;3.00;;;;;;;;;;5074844;28;20257;-53
2020/12/28 09:16:36;;;;;;;5.07;3.03;;;;;;;;;;5074368;28;20285;-54
2020/12/28 09:19:03;;;;;;;5.27;3.00;;;;;;;;;;5074613;28;20285;-53
2020/12/28 09:21:30;;;;;;;6.10;3.87;;;;;;;;;;5075627;27;20285;-54
2020/12/28 09:23:57;;;;;;;7.37;3.97;;;;;;;;;;5074673;28;20257;-53
2020/12/28 09:26:23;;;;;;;6.33;3.60;;;;;;;;;;5074417;28;20609;-53
2020/12/28 09:28:50;;;;;;;7.10;4.17;;;;;;;;;;5074438;28;20384;-53
2020/12/28 09:31:17;;;;;;;6.57;3.60;;;;;;;;;;5074467;28;20241;-53
2020/12/28 09:33:43;;;;;;;4.87;3.00;;;;;;;;;;5074364;28;20258;-53
2020/12/28 09:36:10;;;;;;;6.17;3.57;;;;;;;;;;5074308;28;20260;-53
2020/12/28 09:38:37;;;;;;;5.17;3.00;;;;;;;;;;5074426;28;20257;-53
2020/12/28 09:41:03;;;;;;;9.03;3.50;;;;;;;;;;5074181;28;20260;-53
2020/12/28 09:43:30;;;;;;;5.87;3.13;;;;;;;;;;5074156;28;20343;-53
2020/12/28 09:45:57;;;;;;;7.63;3.70;;;;;;;;;;5074124;28;20314;-53
2020/12/28 09:48:23;;;;;;;5.83;3.57;;;;;;;;;;5074039;28;20321;-53
2020/12/28 09:50:50;;;;;;;9.47;3.77;;;;;;;;;;5074150;28;20257;-53
2020/12/28 09:53:17;;;;;;;6.57;3.53;;;;;;;;;;5074038;28;20258;-53
2020/12/28 09:55:43;;;;;;;6.83;3.60;;;;;;;;;;5073828;28;20307;-54
2020/12/28 09:58:10;;;;;;;6.23;3.53;;;;;;;;;;5073935;28;20257;-54
2020/12/28 10:00:37;;;;;;;8.03;3.83;;;;;;;;;;5073881;28;20786;-53
2020/12/28 10:03:03;;;;;;;6.07;4.17;;;;;;;;;;5073668;28;20732;-53
2020/12/28 10:05:30;;;;;;;7.10;3.73;;;;;;;;;;5073691;28;20323;-53
2020/12/28 10:07:57;;;;;;;6.10;3.33;;;;;;;;;;5073682;28;20285;-54
2020/12/28 10:10:24;;;;;;;7.17;4.40;;;;;;;;;;5073805;28;20600;-54
2020/12/28 10:12:51;;;;;;;7.53;4.03;;;;;;;;;;5073655;28;20257;-53
2020/12/28 10:15:17;;;;;;;7.67;3.33;;;;;;;;;;5073508;28;20277;-53
2020/12/28 10:18:02;;;;;;;7.30;4.03;;;;;;;;;;5073620;28;20342;-53
2020/12/28 10:20:29;;;;;;;8.18;4.20;;;;;;;;;;5073542;28;20250;-53
2020/12/28 10:22:56;;;;;;;9.60;4.03;;;;;;;;;;5074656;28;20051;-53
2020/12/28 10:25:22;;;;;;;8.50;4.37;;;;;;;;;;5073119;28;20249;-53
2020/12/28 10:27:49;;;;;;;7.67;4.90;;;;;;;;;;5073389;28;20276;-53
2020/12/28 10:30:16;;;;;;;10.23;5.13;;;;;;;;;;5072563;28;20262;-53
2020/12/28 10:32:42;;;;;;;8.73;4.70;;;;;;;;;;5073387;28;20746;-53
2020/12/28 10:35:09;;;;;;;10.40;4.30;;;;;;;;;;5073174;28;20730;-53
2020/12/28 10:37:36;;;;;;;7.53;4.67;;;;;;;;;;5073321;28;20250;-53
2020/12/28 10:40:02;;;;;;;8.80;4.67;;;;;;;;;;5073065;28;20257;-53
2020/12/28 10:42:29;;;;;;;12.30;5.17;;;;;;;;;;5072976;28;20257;-53
2020/12/28 10:44:56;;;;;;;8.53;4.90;;;;;;;;;;5073001;28;20259;-53
2020/12/28 10:47:22;;;;;;;7.80;4.40;;;;;;;;;;5072811;28;20249;-53
2020/12/28 10:49:49;;;;;;;7.43;3.90;;;;;;;;;;5072840;28;20364;-53
2020/12/28 10:52:16;;;;;;;7.47;4.10;;;;;;;;;;5073007;28;20249;-54
2020/12/28 10:54:42;;;;;;;7.73;4.37;;;;;;;;;;5072963;28;20253;-53
2020/12/28 10:57:09;;;;;;;7.13;3.97;;;;;;;;;;5073361;28;20245;-53
2020/12/28 10:59:36;;;;;;;8.90;4.43;;;;;;;;;;5072867;28;20253;-53
2020/12/28 11:02:02;;;;;;;9.00;5.03;;;;;;;;;;5073059;28;20292;-53
2020/12/28 11:04:29;;;;;;;6.77;3.87;;;;;;;;;;5072804;28;20242;-53
2020/12/28 11:06:56;;;;;;;7.23;4.50;;;;;;;;;;5072808;28;20261;-53
2020/12/28 11:09:22;;;;;;;5.60;3.83;;;;;;;;;;5072723;28;20348;-53
2020/12/28 11:11:49;;;;;;;6.73;4.00;;;;;;;;;;5072713;28;20612;-53
2020/12/28 11:14:16;;;;;;;7.67;3.83;;;;;;;;;;5072832;28;20254;-53
2020/12/28 11:16:43;;;;;;;6.57;4.00;;;;;;;;;;5072563;28;20336;-53
2020/12/28 11:19:09;;;;;;;6.97;4.30;;;;;;;;;;5072712;28;20242;-53
2020/12/28 11:21:36;;;;;;;6.60;3.80;;;;;;;;;;5073812;28;20273;-54
2020/12/28 11:24:03;;;;;;;6.93;4.40;;;;;;;;;;5072426;28;20289;-54
2020/12/28 11:26:30;;;;;;;9.30;4.60;;;;;;;;;;5072633;28;20253;-53
2020/12/28 11:28:57;;;;;;;6.57;4.00;;;;;;;;;;5073146;28;20320;-53
2020/12/28 11:31:24;;;;;;;9.13;4.80;;;;;;;;;;5072854;28;20253;-53
2020/12/28 11:33:51;;;;;;;9.23;4.37;;;;;;;;;;5072596;28;20757;-53
2020/12/28 11:36:18;;;;;;;6.70;3.83;;;;;;;;;;5072575;28;20260;-53
2020/12/28 11:38:45;;;;;;;5.47;3.63;;;;;;;;;;5072588;28;20264;-53
2020/12/28 11:41:19;;;;;;;7.57;4.27;;;;;;;;;;5074959;28;20642;-53
2020/12/28 11:43:46;;;;;;;9.43;4.10;;;;;;;;;;5076329;28;20277;-53
2020/12/28 11:46:13;;;;;;;6.83;4.13;;;;;;;;;;5076204;28;20312;-53
2020/12/28 11:48:40;;;;;;;5.63;3.37;;;;;;;;;;5076182;28;20281;-53
2020/12/28 11:51:07;;;;;;;7.93;4.00;;;;;;;;;;5076384;28;20254;-53
2020/12/28 11:53:34;;;;;;;6.60;4.40;;;;;;;;;;5076349;28;20275;-53
2020/12/28 11:56:12;;;;;;;18.93;3.73;;;;;;;;;;5076303;28;20288;-53
2020/12/28 11:58:39;;;;;;;7.47;4.50;;;;;;;;;;5076207;28;20252;-53
2020/12/28 12:01:11;;;;;;;13.57;4.07;;;;;;;;;;5076232;28;20710;-53
2020/12/28 12:03:38;;;;;;;6.60;4.00;;;;;;;;;;5075938;28;20250;-53
2020/12/28 12:06:05;;;;;;;15.20;3.97;;;;;;;;;;5076052;28;20253;-53
2020/12/28 12:08:32;;;;;;;7.17;3.40;;;;;;;;;;5075950;28;20782;-53
2020/12/28 12:10:58;;;;;;;10.57;3.60;;;;;;;;;;5076118;28;20281;-53
2020/12/28 12:13:26;;;;;;;6.50;4.27;;;;;;;;;;5075905;28;20258;-53
2020/12/28 12:15:53;;;;;;;9.43;4.00;;;;;;;;;;5075820;28;20257;-53
2020/12/28 12:18:19;;;;;;;10.13;3.80;;;;;;;;;;5075889;28;20250;-53
2020/12/28 12:20:46;;;;;;;6.20;4.13;;;;;;;;;;5075799;28;20672;-53
2020/12/28 12:23:13;;;;;;;9.53;4.97;;;;;;;;;;5077067;28;20313;-53
2020/12/28 12:25:39;;;;;;;7.57;4.60;;;;;;;;;;5075674;28;20257;-53
2020/12/28 12:28:06;;;;;;;25.77;4.87;;;;;;;;;;5075513;28;20280;-53
2020/12/28 12:30:33;;;;;;;6.90;4.03;;;;;;;;;;5075905;28;20262;-53
2020/12/28 12:33:00;;;;;;;8.13;4.50;;;;;;;;;;5075477;28;20298;-53
2020/12/28 12:35:27;;;;;;;8.13;4.90;;;;;;;;;;5075214;28;20728;-53
2020/12/28 12:37:53;;;;;;;7.47;4.07;;;;;;;;;;5075815;28;20306;-53
2020/12/28 12:40:20;;;;;;;7.83;4.70;;;;;;;;;;5075496;28;20258;-53
2020/12/28 12:42:47;;;;;;;9.73;4.30;;;;;;;;;;5075382;28;20613;-53
2020/12/28 12:45:13;;;;;;;8.40;5.10;;;;;;;;;;5075200;28;20253;-53
2020/12/28 12:47:42;;;;;;;7.17;4.00;;;;;;;;;;5075138;28;20418;-53
2020/12/28 12:50:09;;;;;;;6.93;4.00;;;;;;;;;;5075332;28;20715;-53
2020/12/28 12:52:35;;;;;;;8.73;3.97;;;;;;;;;;5074556;28;20268;-53
2020/12/28 12:55:02;;;;;;;8.57;4.20;;;;;;;;;;5075140;28;20346;-53
2020/12/28 12:57:29;;;;;;;6.67;3.87;;;;;;;;;;5075167;28;20281;-53
2020/12/28 13:00:03;;;;;;;7.10;3.93;;;;;;;;;;5075223;28;20260;-53
2020/12/28 13:02:31;;;;;;;9.35;4.10;;;;;;;;;;5075142;28;20250;-53
2020/12/28 13:05:02;;;;;;;8.70;4.40;;;;;;;;;;5074938;28;20043;-53
2020/12/28 13:07:29;;;;;;;10.03;4.67;;;;;;;;;;5074927;28;20319;-53
2020/12/28 13:09:56;;;;;;;6.47;3.90;;;;;;;;;;5074946;28;20277;-53
2020/12/28 13:12:23;;;;;;;6.27;4.20;;;;;;;;;;5074922;28;20249;-53
2020/12/28 13:14:49;;;;;;;7.97;4.50;;;;;;;;;;5074797;28;20296;-53
2020/12/28 13:17:16;;;;;;;7.13;4.10;;;;;;;;;;5074877;28;20246;-53
2020/12/28 13:19:43;;;;;;;7.77;4.20;;;;;;;;;;5074851;28;20262;-53
2020/12/28 13:22:13;;;;;;;9.63;4.80;;;;;;;;;;5076012;27;20278;-53
2020/12/28 13:24:40;;;;;;;6.90;4.40;;;;;;;;;;5056695;28;20790;-53
2020/12/28 13:27:07;;;;;;;10.10;4.67;;;;;;;;;;5074605;28;20321;-53
2020/12/28 13:29:35;;;;;;;13.63;5.10;;;;;;;;;;5074273;28;20277;-53
2020/12/28 13:32:01;;;;;;;11.87;4.80;;;;;;;;;;5074527;28;20245;-53
2020/12/28 13:34:28;;;;;;;13.33;5.20;;;;;;;;;;5074414;28;20280;-53
2020/12/28 13:36:55;;;;;;;10.73;4.70;;;;;;;;;;5074530;28;20261;-53
2020/12/28 13:39:22;;;;;;;15.50;4.90;;;;;;;;;;5074335;28;20324;-53
2020/12/28 13:41:49;;;;;;;8.33;5.03;;;;;;;;;;5074438;28;20293;-53
2020/12/28 13:44:16;;;;;;;7.33;4.83;;;;;;;;;;5074400;28;20250;-53
2020/12/28 13:46:46;;;;;;;11.47;4.60;;;;;;;;;;5074138;28;20338;-53
2020/12/28 13:49:13;;;;;;;10.70;5.07;;;;;;;;;;5074090;28;20281;-53
2020/12/28 13:51:40;;;;;;;9.90;4.90;;;;;;;;;;5074097;28;20336;-53
2020/12/28 13:54:07;;;;;;;10.97;5.23;;;;;;;;;;5074162;28;20245;-53
2020/12/28 13:56:34;;;;;;;13.20;5.97;;;;;;;;;;5074290;28;20249;-54
2020/12/28 13:59:01;;;;;;;9.43;5.23;;;;;;;;;;5074076;28;20302;-53
2020/12/28 14:01:35;;;;;;;10.67;4.80;;;;;;;;;;5073818;28;20285;-54
2020/12/28 14:04:01;;;;;;;13.33;5.20;;;;;;;;;;5073831;28;20269;-54
2020/12/28 14:06:29;;;;;;;10.63;5.63;;;;;;;;;;5056062;28;20250;-54
2020/12/28 14:08:56;;;;;;;9.13;5.00;;;;;;;;;;5073983;28;20347;-53
2020/12/28 14:11:24;;;;;;;12.33;4.83;;;;;;;;;;5073962;28;20277;-54
2020/12/28 14:13:51;;;;;;;15.23;4.90;;;;;;;;;;5073553;28;20249;-53
2020/12/28 14:16:19;;;;;;;6.23;4.10;;;;;;;;;;5073538;28;20272;-53
2020/12/28 14:18:46;;;;;;;10.03;4.60;;;;;;;;;;5073541;28;20300;-53
2020/12/28 14:21:14;;;;;;;8.10;4.77;;;;;;;;;;5073667;28;20246;-53
2020/12/28 14:23:42;;;;;;;14.90;5.33;;;;;;;;;;5073275;28;20285;-53
2020/12/28 14:26:12;;;;;;;17.67;6.13;;;;;;;;;;5073349;28;20328;-53
2020/12/28 14:28:39;;;;;;;13.07;6.90;;;;;;;;;;5073343;28;20698;-53
2020/12/28 14:31:16;;;;;;;11.07;6.20;;;;;;;;;;5073280;28;20245;-53
2020/12/28 14:33:43;;;;;;;11.93;6.63;;;;;;;;;;5073245;28;20311;-53
2020/12/28 14:36:28;;;;;;;9.77;6.27;;;;;;;;;;5073245;28;20323;-53
2020/12/28 14:38:55;;;;;;;13.10;5.83;;;;;;;;;;5073223;28;20795;-53
2020/12/28 14:41:22;;;;;;;13.03;5.83;;;;;;;;;;5073128;28;20284;-53